createdAt,value
2023-04-27T00:01:42.512Z,5.07
2023-04-27T00:04:09.436Z,5.20
2023-04-27T00:06:36.467Z,5.30
2023-04-27T00:09:04.658Z,5.37
2023-04-27T00:11:31.910Z,5.27
2023-04-27T00:13:58.945Z,5.40
2023-04-27T00:16:26.716Z,5.80
2023-04-27T00:18:54.094Z,5.23
2023-04-27T00:21:21.146Z,5.60
2023-04-27T00:23:48.217Z,5.00
2023-04-27T00:26:15.036Z,5.27
2023-04-27T00:28:44.258Z,5.30
2023-04-27T00:31:11.675Z,6.10
2023-04-27T00:33:38.559Z,7.10
2023-04-27T00:36:06.219Z,6.57
2023-04-27T00:38:33.151Z,6.03
2023-04-27T00:41:07.760Z,6.47
2023-04-27T00:43:43.819Z,7.03
2023-04-27T00:46:13.166Z,6.53
2023-04-27T00:48:41.170Z,6.00
2023-04-27T00:51:08.634Z,6.07
2023-04-27T00:53:36.893Z,6.43
2023-04-27T00:56:07.515Z,5.40
2023-04-27T00:58:35.080Z,6.07
2023-04-27T01:01:02.114Z,5.70
2023-04-27T01:03:30.758Z,6.37
2023-04-27T01:05:59.736Z,5.60
2023-04-27T01:08:26.468Z,6.47
2023-04-27T01:10:54.760Z,5.93
2023-04-27T01:13:22.237Z,6.00
2023-04-27T01:15:49.152Z,5.93
2023-04-27T01:18:15.888Z,6.07
2023-04-27T01:20:43.295Z,6.70
2023-04-27T01:23:17.447Z,6.30
2023-04-27T01:25:45.009Z,6.17
2023-04-27T01:28:12.301Z,5.90
2023-04-27T01:30:39.097Z,6.23
2023-04-27T01:33:06.564Z,6.53
2023-04-27T01:35:33.320Z,6.00
2023-04-27T01:38:00.504Z,5.77
2023-04-27T01:40:27.607Z,4.93
2023-04-27T01:42:54.273Z,5.70
2023-04-27T01:45:21.424Z,5.50
2023-04-27T01:47:52.004Z,5.10
2023-04-27T01:50:20.716Z,5.43
2023-04-27T01:52:47.597Z,4.93
2023-04-27T01:55:14.879Z,5.20
2023-04-27T01:57:42.590Z,5.40
2023-04-27T02:00:10.038Z,5.60
2023-04-27T02:02:51.185Z,5.80
2023-04-27T02:05:18.295Z,6.13
2023-04-27T02:07:46.167Z,5.13
2023-04-27T02:10:12.939Z,5.43
2023-04-27T02:12:39.627Z,5.00
2023-04-27T02:15:08.694Z,5.60
2023-04-27T02:17:35.960Z,5.43
2023-04-27T02:20:02.727Z,5.73
2023-04-27T02:22:29.863Z,6.07
2023-04-27T02:24:56.753Z,6.47
2023-04-27T02:27:23.479Z,6.87
2023-04-27T02:29:50.974Z,5.80
2023-04-27T02:32:18.258Z,6.50
2023-04-27T02:34:45.428Z,6.80
2023-04-27T02:37:12.519Z,6.17
2023-04-27T02:39:39.324Z,6.00
2023-04-27T02:42:06.410Z,5.60
2023-04-27T02:44:33.128Z,5.43
2023-04-27T02:47:00.610Z,5.73
2023-04-27T02:49:27.824Z,5.50
2023-04-27T02:51:54.596Z,5.77
2023-04-27T02:54:21.302Z,6.03
2023-04-27T02:56:48.065Z,5.83
2023-04-27T02:59:15.131Z,5.90
2023-04-27T03:01:42.276Z,6.00
2023-04-27T03:04:09.820Z,6.43
2023-04-27T03:06:36.676Z,5.60
2023-04-27T03:09:03.977Z,6.27
2023-04-27T03:11:31.148Z,5.57
2023-04-27T03:13:58.126Z,5.50
2023-04-27T03:16:24.968Z,5.77
2023-04-27T03:18:51.744Z,5.90
2023-04-27T03:21:18.768Z,5.67
2023-04-27T03:23:49.069Z,5.07
2023-04-27T03:26:16.581Z,5.90
2023-04-27T03:28:43.539Z,5.70
2023-04-27T03:31:12.210Z,5.60
2023-04-27T03:33:39.940Z,5.17
2023-04-27T03:36:08.262Z,6.13
2023-04-27T03:38:35.715Z,5.63
2023-04-27T03:41:03.117Z,5.30
2023-04-27T03:43:29.942Z,5.83
2023-04-27T03:45:56.872Z,5.60
2023-04-27T03:48:24.308Z,5.63
2023-04-27T03:50:53.234Z,4.93
2023-04-27T03:53:20.797Z,5.23
2023-04-27T03:55:48.326Z,5.03
2023-04-27T03:58:17.470Z,5.90
2023-04-27T04:01:03.421Z,5.30
2023-04-27T04:03:30.526Z,5.77
2023-04-27T04:05:57.504Z,5.67
2023-04-27T04:08:24.288Z,4.83
2023-04-27T04:10:51.006Z,5.33
2023-04-27T04:13:17.789Z,5.67
2023-04-27T04:15:44.951Z,5.20
2023-04-27T04:18:12.389Z,5.57
2023-04-27T04:20:39.122Z,5.40
2023-04-27T04:23:06.284Z,6.33
2023-04-27T04:25:33.674Z,6.03
2023-04-27T04:28:01.120Z,6.20
2023-04-27T04:30:29.067Z,6.13
2023-04-27T04:32:55.852Z,5.73
2023-04-27T04:35:22.686Z,6.67
2023-04-27T04:37:49.993Z,5.90
2023-04-27T04:40:17.139Z,5.67
2023-04-27T04:42:44.140Z,5.80
2023-04-27T04:45:11.569Z,5.80
2023-04-27T04:47:39.814Z,5.70
2023-04-27T04:50:07.377Z,5.47
2023-04-27T04:52:35.177Z,5.97
2023-04-27T04:55:01.928Z,5.33
2023-04-27T04:57:31.284Z,5.50
2023-04-27T04:59:58.238Z,5.80
2023-04-27T05:02:25.214Z,5.73
2023-04-27T05:04:57.027Z,5.47
2023-04-27T05:07:25.109Z,4.97
2023-04-27T05:09:52.689Z,5.07
2023-04-27T05:12:19.512Z,5.23
2023-04-27T05:14:46.725Z,4.93
2023-04-27T05:17:13.422Z,5.40
2023-04-27T05:19:40.310Z,5.03
2023-04-27T05:22:07.012Z,5.47
2023-04-27T05:24:34.326Z,5.83
2023-04-27T05:27:02.491Z,5.27
2023-04-27T05:29:29.665Z,5.30
2023-04-27T05:31:56.445Z,4.93
2023-04-27T05:34:23.257Z,5.27
2023-04-27T05:36:50.226Z,4.97
2023-04-27T05:39:17.125Z,6.20
2023-04-27T05:41:43.902Z,5.23
2023-04-27T05:44:10.986Z,5.00
2023-04-27T05:46:38.876Z,5.33
2023-04-27T05:49:05.880Z,5.27
2023-04-27T05:51:33.626Z,5.47
2023-04-27T05:54:02.114Z,4.80
2023-04-27T05:56:29.033Z,5.23
2023-04-27T05:58:55.763Z,5.13
2023-04-27T06:01:24.114Z,5.30
2023-04-27T06:03:51.070Z,4.87
2023-04-27T06:06:17.908Z,4.80
2023-04-27T06:08:44.844Z,5.73
2023-04-27T06:11:11.967Z,5.10
2023-04-27T06:13:39.270Z,5.53
2023-04-27T06:16:06.184Z,6.23
2023-04-27T06:18:32.931Z,6.30
2023-04-27T06:21:01.663Z,4.40
2023-04-27T06:23:28.867Z,4.37
2023-04-27T06:25:56.058Z,4.47
2023-04-27T06:28:23.440Z,4.30
2023-04-27T06:30:50.268Z,4.20
2023-04-27T06:33:17.857Z,3.87
2023-04-27T06:35:47.386Z,4.10
2023-04-27T06:38:14.398Z,4.30
2023-04-27T06:40:41.180Z,4.30
2023-04-27T06:43:08.337Z,4.10
2023-04-27T06:45:36.335Z,4.00
2023-04-27T06:48:03.351Z,3.70
2023-04-27T06:50:30.820Z,4.27
2023-04-27T06:52:57.963Z,3.90
2023-04-27T06:55:25.358Z,4.47
2023-04-27T06:57:52.506Z,4.10
2023-04-27T07:00:19.900Z,3.70
2023-04-27T07:02:47.103Z,3.83
2023-04-27T07:05:13.992Z,3.33
2023-04-27T07:07:40.716Z,3.57
2023-04-27T07:10:08.899Z,4.03
2023-04-27T07:12:35.854Z,3.77
2023-04-27T07:15:04.502Z,4.43
2023-04-27T07:17:31.364Z,4.40
2023-04-27T07:19:58.631Z,3.77
2023-04-27T07:22:25.715Z,4.20
2023-04-27T07:24:52.769Z,4.57
2023-04-27T07:27:20.439Z,4.43
2023-04-27T07:29:48.181Z,4.00
2023-04-27T07:32:15.235Z,4.17
2023-04-27T07:34:52.926Z,3.45
2023-04-27T07:37:22.167Z,3.70
2023-04-27T07:39:50.483Z,3.92
2023-04-27T07:42:18.585Z,3.47
2023-04-27T07:44:45.306Z,3.30
2023-04-27T07:47:13.305Z,2.15
2023-04-27T07:49:40.677Z,2.55
2023-04-27T07:52:08.421Z,2.70
2023-04-27T07:54:35.307Z,2.50
2023-04-27T07:57:07.890Z,3.72
2023-04-27T07:59:34.640Z,2.60
2023-04-27T08:02:17.838Z,2.47
2023-04-27T08:04:47.046Z,2.63
2023-04-27T08:07:18.484Z,2.45
2023-04-27T08:09:46.421Z,1.70
2023-04-27T08:12:13.144Z,2.65
2023-04-27T08:14:39.831Z,2.28
2023-04-27T08:17:07.299Z,2.30
2023-04-27T08:19:34.424Z,2.53
2023-04-27T08:22:01.463Z,2.38
2023-04-27T08:24:28.374Z,3.50
2023-04-27T08:26:55.616Z,2.30
2023-04-27T08:29:27.992Z,2.10
2023-04-27T08:31:58.855Z,2.47
2023-04-27T08:34:26.848Z,2.22
2023-04-27T08:36:54.659Z,2.45
2023-04-27T08:39:21.895Z,2.50
2023-04-27T08:41:49.013Z,2.40
2023-04-27T08:44:16.527Z,2.20
2023-04-27T08:46:43.408Z,2.53
2023-04-27T08:49:10.940Z,2.67
2023-04-27T08:51:37.839Z,2.60
2023-04-27T08:54:04.585Z,2.45
2023-04-27T08:56:31.935Z,2.53
2023-04-27T08:59:00.676Z,2.35
2023-04-27T09:01:27.770Z,2.97
2023-04-27T09:04:00.397Z,2.90
2023-04-27T09:06:32.066Z,2.30
2023-04-27T09:08:59.717Z,2.97
2023-04-27T09:11:38.619Z,2.17
2023-04-27T09:14:23.988Z,2.53
2023-04-27T09:16:58.587Z,2.20
2023-04-27T09:19:30.068Z,2.95
2023-04-27T09:22:11.691Z,3.20
2023-04-27T09:24:39.054Z,2.20
2023-04-27T09:27:07.210Z,2.72
2023-04-27T09:29:36.317Z,2.08
2023-04-27T09:32:16.786Z,2.15
2023-04-27T09:34:44.244Z,2.20
2023-04-27T09:37:11.647Z,2.30
2023-04-27T09:39:39.109Z,2.78
2023-04-27T09:42:06.242Z,2.35
2023-04-27T09:44:34.572Z,2.10
2023-04-27T09:47:01.376Z,2.00
2023-04-27T09:49:29.563Z,1.90
2023-04-27T09:51:58.818Z,2.28
2023-04-27T09:54:29.259Z,1.98
2023-04-27T09:57:30.176Z,2.10
2023-04-27T10:00:34.022Z,2.08
2023-04-27T10:03:19.885Z,2.08
2023-04-27T10:05:58.801Z,2.20
2023-04-27T10:08:26.827Z,1.98
2023-04-27T10:10:53.724Z,1.83
2023-04-27T10:13:26.816Z,2.20
2023-04-27T10:15:54.301Z,2.00
2023-04-27T10:18:29.854Z,1.95
2023-04-27T10:20:58.197Z,2.38
2023-04-27T10:23:27.521Z,2.10
2023-04-27T10:25:54.852Z,2.35
2023-04-27T10:28:21.620Z,2.10
2023-04-27T10:30:49.351Z,2.30
2023-04-27T10:33:21.795Z,2.40
2023-04-27T10:35:57.283Z,2.20
2023-04-27T10:38:31.051Z,2.03
2023-04-27T10:41:03.075Z,1.90
2023-04-27T10:43:31.953Z,2.10
2023-04-27T10:46:15.903Z,2.67
2023-04-27T10:48:44.626Z,2.25
2023-04-27T10:51:17.406Z,2.17
2023-04-27T10:53:44.770Z,2.65
2023-04-27T10:56:11.802Z,2.28
2023-04-27T11:01:09.241Z,2.20
2023-04-27T11:03:36.702Z,2.10
2023-04-27T11:06:05.652Z,2.17
2023-04-27T11:08:36.782Z,1.85
2023-04-27T11:11:05.361Z,1.88
2023-04-27T11:13:33.630Z,2.03
2023-04-27T11:16:00.967Z,1.63
2023-04-27T11:18:31.659Z,2.60
2023-04-27T11:21:18.840Z,12.95
2023-04-27T11:23:46.238Z,2.58
2023-04-27T11:26:16.030Z,2.47
2023-04-27T11:28:44.479Z,2.00
2023-04-27T11:31:11.848Z,2.00
2023-04-27T11:33:40.245Z,2.28
2023-04-27T11:36:21.178Z,1.83
2023-04-27T11:38:48.305Z,2.28
2023-04-27T11:41:16.179Z,1.77
2023-04-27T11:43:49.863Z,1.70
2023-04-27T11:46:21.308Z,2.10
2023-04-27T11:48:49.166Z,1.70
2023-04-27T11:51:16.384Z,1.70
2023-04-27T11:53:48.268Z,2.05
2023-04-27T11:56:15.372Z,2.33
2023-04-27T11:58:44.445Z,1.83
2023-04-27T12:01:13.526Z,2.03
2023-04-27T12:03:40.822Z,2.00
2023-04-27T12:06:27.787Z,1.65
2023-04-27T12:08:58.281Z,1.77
2023-04-27T12:11:28.786Z,2.20
2023-04-27T12:13:57.054Z,1.67
2023-04-27T12:16:23.850Z,1.80
2023-04-27T12:18:51.016Z,1.50
2023-04-27T12:21:18.425Z,1.70
2023-04-27T12:23:45.612Z,2.00
2023-04-27T12:26:14.957Z,2.05
2023-04-27T12:28:42.522Z,2.03
2023-04-27T12:31:13.509Z,1.85
2023-04-27T12:33:40.270Z,2.08
2023-04-27T12:36:07.412Z,1.58
2023-04-27T12:38:34.404Z,1.83
2023-04-27T12:41:02.280Z,1.65
2023-04-27T12:43:28.997Z,1.67
2023-04-27T12:45:56.311Z,1.77
2023-04-27T12:48:23.766Z,1.70
2023-04-27T12:50:51.535Z,1.52
2023-04-27T12:53:18.294Z,2.00
2023-04-27T12:55:45.114Z,1.73
2023-04-27T12:58:11.949Z,2.08
2023-04-27T13:00:39.357Z,2.00
2023-04-27T13:03:07.005Z,2.08
2023-04-27T13:05:33.760Z,2.10
2023-04-27T13:08:00.707Z,1.58
2023-04-27T13:10:29.610Z,1.90
2023-04-27T13:12:56.736Z,2.17
2023-04-27T13:15:23.482Z,2.47
2023-04-27T13:17:50.799Z,1.77
2023-04-27T13:20:17.701Z,1.90
2023-04-27T13:22:44.471Z,1.85
2023-04-27T13:25:11.553Z,1.50
2023-04-27T13:27:38.495Z,1.70
2023-04-27T13:30:06.768Z,1.42
2023-04-27T13:32:33.885Z,1.65
2023-04-27T13:35:00.645Z,1.55
2023-04-27T13:37:28.067Z,1.77
2023-04-27T13:39:54.755Z,1.98
2023-04-27T13:42:22.018Z,1.42
2023-04-27T13:44:48.978Z,1.83
2023-04-27T13:47:15.751Z,2.13
2023-04-27T13:49:42.979Z,1.70
2023-04-27T13:52:10.178Z,1.67
2023-04-27T13:54:37.486Z,2.13
2023-04-27T13:57:04.253Z,1.42
2023-04-27T13:59:30.985Z,1.70
2023-04-27T14:01:58.718Z,1.67
2023-04-27T14:04:25.553Z,1.60
2023-04-27T14:06:52.612Z,1.48
2023-04-27T14:09:19.432Z,1.10
2023-04-27T14:11:55.719Z,1.20
2023-04-27T14:14:24.212Z,1.40
2023-04-27T14:16:51.573Z,0.95
2023-04-27T14:19:20.605Z,1.30
2023-04-27T14:21:49.823Z,1.60
2023-04-27T14:24:16.872Z,1.50
2023-04-27T14:26:44.586Z,1.40
2023-04-27T14:29:12.188Z,1.20
2023-04-27T14:31:40.235Z,1.80
2023-04-27T14:34:08.061Z,1.38
2023-04-27T14:36:35.528Z,1.52
2023-04-27T14:39:02.796Z,1.70
2023-04-27T14:41:30.430Z,1.73
2023-04-27T14:43:57.505Z,1.52
2023-04-27T14:46:24.448Z,1.38
2023-04-27T14:48:51.760Z,1.75
2023-04-27T14:51:18.789Z,1.35
2023-04-27T14:53:45.571Z,1.83
2023-04-27T14:56:12.568Z,1.63
2023-04-27T14:58:39.364Z,1.70
2023-04-27T15:01:07.893Z,1.90
2023-04-27T15:03:35.024Z,2.15
2023-04-27T15:06:02.811Z,1.75
2023-04-27T15:08:32.683Z,1.30
2023-04-27T15:11:01.066Z,1.75
2023-04-27T15:13:28.254Z,1.50
2023-04-27T15:15:57.104Z,1.50
2023-04-27T15:18:24.905Z,1.65
2023-04-27T15:21:00.746Z,1.50
2023-04-27T15:23:27.917Z,2.20
2023-04-27T15:25:56.990Z,1.50
2023-04-27T15:28:24.311Z,1.85
2023-04-27T15:30:51.229Z,3.13
2023-04-27T15:33:18.886Z,1.65
2023-04-27T15:35:46.145Z,1.90
2023-04-27T15:38:14.847Z,1.80
2023-04-27T15:40:41.904Z,1.35
2023-04-27T15:43:08.888Z,2.00
2023-04-27T15:45:36.289Z,1.77
2023-04-27T15:48:03.211Z,1.75
2023-04-27T15:50:31.022Z,2.25
2023-04-27T15:52:58.165Z,2.10
2023-04-27T15:55:25.022Z,2.20
2023-04-27T15:57:52.608Z,2.22
2023-04-27T16:00:22.675Z,1.98
2023-04-27T16:02:49.845Z,2.10
2023-04-27T16:05:17.097Z,2.20
2023-04-27T16:07:45.921Z,2.10
2023-04-27T16:10:13.560Z,1.88
2023-04-27T16:12:40.897Z,1.98
2023-04-27T16:15:11.493Z,3.40
2023-04-27T16:17:39.193Z,6.07
2023-04-27T16:20:06.940Z,4.90
2023-04-27T16:22:35.094Z,5.63
2023-04-27T16:25:02.371Z,2.50
2023-04-27T16:27:29.238Z,2.67
2023-04-27T16:29:57.458Z,2.97
2023-04-27T16:32:24.542Z,2.60
2023-04-27T16:34:51.985Z,2.40
2023-04-27T16:37:18.965Z,2.35
2023-04-27T16:39:46.907Z,2.53
2023-04-27T16:42:18.678Z,2.75
2023-04-27T16:44:46.610Z,2.92
2023-04-27T16:47:13.778Z,3.13
2023-04-27T16:49:43.584Z,3.05
2023-04-27T16:52:11.282Z,2.60
2023-04-27T16:54:38.583Z,2.75
2023-04-27T16:57:05.419Z,2.28
2023-04-27T16:59:32.554Z,2.50
2023-04-27T17:02:08.996Z,2.63
2023-04-27T17:04:40.839Z,3.50
2023-04-27T17:07:09.309Z,2.70
2023-04-27T17:09:39.186Z,2.75
2023-04-27T17:12:10.985Z,2.42
2023-04-27T17:14:38.854Z,3.13
2023-04-27T17:17:06.496Z,2.85
2023-04-27T17:19:33.347Z,2.78
2023-04-27T17:22:00.575Z,2.10
2023-04-27T17:24:27.390Z,2.97
2023-04-27T17:26:54.646Z,2.70
2023-04-27T17:29:21.812Z,2.72
2023-04-27T17:31:50.432Z,2.67
2023-04-27T17:34:17.704Z,2.63
2023-04-27T17:36:44.473Z,2.42
2023-04-27T17:39:13.194Z,2.50
2023-04-27T17:41:40.875Z,2.78
2023-04-27T17:44:07.730Z,2.85
2023-04-27T17:46:34.641Z,3.15
2023-04-27T17:49:02.031Z,2.92
2023-04-27T17:51:28.746Z,3.42
2023-04-27T17:53:55.676Z,3.20
2023-04-27T17:56:22.811Z,2.88
2023-04-27T17:58:49.638Z,3.38
2023-04-27T18:01:17.372Z,2.60
2023-04-27T18:03:44.678Z,2.80
2023-04-27T18:06:11.758Z,2.15
2023-04-27T18:08:38.991Z,2.35
2023-04-27T18:11:06.727Z,2.28
2023-04-27T18:13:33.501Z,2.50
2023-04-27T18:16:00.216Z,2.22
2023-04-27T18:18:28.395Z,2.22
2023-04-27T18:20:55.470Z,2.13
2023-04-27T18:23:22.344Z,2.40
2023-04-27T18:25:49.782Z,2.50
2023-04-27T18:28:17.240Z,2.28
2023-04-27T18:30:44.031Z,2.35
2023-04-27T18:33:10.940Z,2.60
2023-04-27T18:35:37.991Z,2.28
2023-04-27T18:38:04.759Z,2.30
2023-04-27T18:40:32.783Z,2.37
2023-04-27T18:43:00.199Z,2.67
2023-04-27T18:45:27.206Z,2.25
2023-04-27T18:47:54.577Z,2.20
2023-04-27T18:50:21.425Z,2.40
2023-04-27T18:52:48.283Z,2.03
2023-04-27T18:55:16.839Z,1.90
2023-04-27T18:57:44.065Z,2.30
2023-04-27T19:00:13.965Z,2.20
2023-04-27T19:02:41.111Z,1.83
2023-04-27T19:05:13.109Z,2.30
2023-04-27T19:07:41.053Z,1.77
2023-04-27T19:10:08.530Z,1.90
2023-04-27T19:12:35.965Z,2.17
2023-04-27T19:15:03.851Z,2.20
2023-04-27T19:17:31.496Z,2.53
2023-04-27T19:19:58.741Z,4.00
2023-04-27T19:22:27.439Z,2.40
2023-04-27T19:24:54.608Z,2.30
2023-04-27T19:27:21.318Z,2.33
2023-04-27T19:29:53.654Z,2.50
2023-04-27T19:32:22.236Z,2.03
2023-04-27T19:34:49.402Z,2.03
2023-04-27T19:37:17.338Z,2.60
2023-04-27T19:39:44.431Z,2.30
2023-04-27T19:42:11.386Z,2.10
2023-04-27T19:44:38.076Z,2.50
2023-04-27T19:47:05.571Z,2.00
2023-04-27T19:49:33.732Z,2.40
2023-04-27T19:52:00.998Z,3.27
2023-04-27T19:54:27.892Z,2.70
2023-04-27T19:56:55.767Z,2.73
2023-04-27T19:59:22.884Z,2.37
2023-04-27T20:01:49.663Z,3.73
2023-04-27T20:04:18.198Z,2.77
2023-04-27T20:06:46.378Z,2.67
2023-04-27T20:09:13.156Z,3.20
2023-04-27T20:11:40.617Z,2.77
2023-04-27T20:14:07.334Z,2.80
2023-04-27T20:16:34.166Z,2.60
2023-04-27T20:19:01.194Z,2.80
2023-04-27T20:21:28.194Z,2.87
2023-04-27T20:23:55.550Z,3.10
2023-04-27T20:26:22.569Z,3.23
2023-04-27T20:28:49.637Z,2.90
2023-04-27T20:31:16.610Z,3.03
2023-04-27T20:33:43.421Z,3.03
2023-04-27T20:36:17.313Z,2.70
2023-04-27T20:38:46.200Z,2.87
2023-04-27T20:41:13.089Z,2.80
2023-04-27T20:43:40.594Z,3.37
2023-04-27T20:46:08.436Z,2.83
2023-04-27T20:48:35.273Z,3.60
2023-04-27T20:51:02.797Z,3.40
2023-04-27T20:53:29.995Z,3.33
2023-04-27T20:55:57.255Z,3.47
2023-04-27T20:58:24.010Z,5.30
2023-04-27T21:00:51.608Z,4.53
2023-04-27T21:03:18.766Z,4.80
2023-04-27T21:05:46.003Z,5.30
2023-04-27T21:08:12.784Z,5.27
2023-04-27T21:10:39.876Z,5.87
2023-04-27T21:13:07.127Z,5.27
2023-04-27T21:15:34.546Z,5.67
2023-04-27T21:18:02.007Z,5.37
2023-04-27T21:20:28.802Z,5.30
2023-04-27T21:22:56.265Z,4.83
2023-04-27T21:25:23.844Z,4.17
2023-04-27T21:27:51.022Z,4.50
2023-04-27T21:30:18.495Z,4.70
2023-04-27T21:32:45.442Z,5.33
2023-04-27T21:35:12.502Z,4.73
2023-04-27T21:37:39.216Z,4.80
2023-04-27T21:40:07.021Z,4.47
2023-04-27T21:42:33.711Z,4.47
2023-04-27T21:45:01.029Z,4.37
2023-04-27T21:47:28.144Z,4.23
2023-04-27T21:49:55.232Z,4.77
2023-04-27T21:52:21.989Z,4.47
2023-04-27T21:54:48.784Z,4.33
2023-04-27T21:57:16.931Z,4.60
2023-04-27T21:59:45.427Z,4.40
2023-04-27T22:02:12.729Z,4.50
2023-04-27T22:04:39.699Z,3.77
2023-04-27T22:07:10.911Z,4.90
2023-04-27T22:09:38.232Z,4.73
2023-04-27T22:12:05.768Z,4.40
2023-04-27T22:14:32.901Z,4.47
2023-04-27T22:17:01.126Z,4.93
2023-04-27T22:19:28.889Z,4.50
2023-04-27T22:21:55.761Z,4.27
2023-04-27T22:24:22.707Z,4.03
2023-04-27T22:26:49.800Z,3.93
2023-04-27T22:29:16.793Z,4.63
2023-04-27T22:31:44.271Z,4.53
2023-04-27T22:34:14.730Z,4.63
2023-04-27T22:36:42.032Z,4.50
2023-04-27T22:39:09.036Z,4.67
2023-04-27T22:41:36.151Z,5.10
2023-04-27T22:44:02.967Z,4.93
2023-04-27T22:46:29.910Z,3.67
2023-04-27T22:48:58.648Z,4.70
2023-04-27T22:51:27.305Z,4.77
2023-04-27T22:53:54.664Z,4.57
2023-04-27T22:56:22.536Z,4.40
2023-04-27T22:58:50.196Z,4.47
2023-04-27T23:01:17.084Z,4.03
2023-04-27T23:03:44.112Z,4.53
2023-04-27T23:06:16.817Z,4.37
2023-04-27T23:08:46.022Z,4.80
2023-04-27T23:11:15.495Z,4.27
2023-04-27T23:13:42.390Z,3.90
2023-04-27T23:16:10.047Z,4.77
2023-04-27T23:18:37.115Z,4.10
2023-04-27T23:21:04.339Z,4.07
2023-04-27T23:23:31.172Z,4.63
2023-04-27T23:25:58.216Z,4.80
2023-04-27T23:28:24.974Z,4.63
2023-04-27T23:30:55.431Z,4.37
2023-04-27T23:33:22.831Z,4.33
2023-04-27T23:35:49.718Z,4.60
2023-04-27T23:38:16.623Z,4.33
2023-04-27T23:40:43.537Z,4.40
2023-04-27T23:43:10.566Z,4.17
2023-04-27T23:45:37.738Z,4.27
2023-04-27T23:48:04.920Z,4.20
2023-04-27T23:50:32.012Z,4.00
2023-04-27T23:52:58.947Z,4.10
2023-04-27T23:55:25.623Z,4.30
2023-04-27T23:57:52.557Z,4.33
